Time;durP1;ratioP1;P1;durP2;ratioP2;P2;SDS_P1;SDS_P2;PMS_P1;PMS_P2;Temp;Humidity;BMP_temperature;BMP_pressure;BME280_temperature;BME280_humidity;BME280_pressure;Samples;Min_cycle;Max_cycle;Signal;HPM_P1;HPM_P2
2023/03/31 00:01:26;;;;;;;56.20;30.20;;;8.30;99.90;;;;;;4974504;28;20027;-76
2023/03/31 00:04:00;;;;;;;53.38;29.40;;;8.40;99.90;;;;;;4956921;28;20042;-76
2023/03/31 00:06:27;;;;;;;54.80;30.85;;;8.30;99.90;;;;;;4956845;28;20062;-77
2023/03/31 00:08:53;;;;;;;49.50;30.30;;;8.30;99.90;;;;;;4956812;28;20432;-77
2023/03/31 00:11:20;;;;;;;49.53;30.38;;;8.30;99.90;;;;;;4974101;28;20055;-76
2023/03/31 00:13:46;;;;;;;55.08;30.20;;;8.40;99.90;;;;;;4974230;28;20062;-77
2023/03/31 00:16:12;;;;;;;56.42;31.42;;;8.40;99.90;;;;;;4974266;28;20567;-77
2023/03/31 00:18:39;;;;;;;52.95;31.98;;;8.40;99.90;;;;;;4974109;28;20023;-77
2023/03/31 00:21:13;;;;;;;51.22;30.88;;;8.40;99.90;;;;;;4974062;28;20051;-77
2023/03/31 00:23:39;;;;;;;50.58;31.10;;;8.50;99.90;;;;;;4973821;28;20037;-77
2023/03/31 00:26:05;;;;;;;53.15;32.08;;;8.50;99.90;;;;;;4974153;28;20118;-77
2023/03/31 00:28:31;;;;;;;49.17;29.73;;;8.50;99.90;;;;;;4974033;28;20512;-78
2023/03/31 00:31:02;;;;;;;49.97;30.92;;;8.50;99.90;;;;;;4972835;28;20118;-77
2023/03/31 00:33:28;;;;;;;46.42;29.45;;;8.50;99.90;;;;;;4973907;28;20027;-77
2023/03/31 00:35:54;;;;;;;47.35;28.00;;;8.50;99.90;;;;;;4974070;28;20019;-77
2023/03/31 00:38:20;;;;;;;55.20;31.15;;;8.60;99.90;;;;;;4972629;28;20015;-77
2023/03/31 00:40:47;;;;;;;53.00;30.45;;;8.60;99.90;;;;;;4974081;28;20026;-77
2023/03/31 00:43:33;;;;;;;49.38;31.40;;;8.60;99.90;;;;;;4972663;28;20109;-77
2023/03/31 00:46:16;;;;;;;46.97;27.85;;;8.60;99.90;;;;;;4977100;28;20046;-77
2023/03/31 00:48:57;;;;;;;41.65;27.30;;;8.60;99.90;;;;;;4976136;28;20023;-77
2023/03/31 00:51:26;;;;;;;42.72;26.85;;;8.60;99.90;;;;;;4977403;28;20102;-78
2023/03/31 00:54:05;;;;;;;44.78;25.77;;;8.60;99.90;;;;;;4977342;28;20033;-78
2023/03/31 00:56:36;;;;;;;41.75;26.92;;;8.60;99.90;;;;;;4976045;28;20019;-77
2023/03/31 00:59:06;;;;;;;49.05;26.10;;;8.60;99.90;;;;;;4977223;28;20027;-77
2023/03/31 01:01:34;;;;;;;39.72;24.42;;;8.70;99.90;;;;;;4975992;28;20027;-77
2023/03/31 01:04:01;;;;;;;38.03;24.58;;;8.70;99.90;;;;;;4975811;28;20027;-77
2023/03/31 01:06:29;;;;;;;36.28;23.88;;;8.70;99.90;;;;;;4975846;28;20045;-76
2023/03/31 01:08:56;;;;;;;36.22;23.02;;;8.60;99.90;;;;;;4977116;28;20026;-78
2023/03/31 01:11:25;;;;;;;40.15;26.25;;;8.60;99.90;;;;;;4975742;28;20022;-77
2023/03/31 01:13:54;;;;;;;39.38;25.25;;;8.60;99.90;;;;;;4977067;28;20070;-77
2023/03/31 01:16:21;;;;;;;43.33;25.17;;;8.60;99.90;;;;;;4975620;28;20015;-77
2023/03/31 01:18:48;;;;;;;39.25;24.65;;;8.60;99.90;;;;;;4976858;28;20038;-77
2023/03/31 01:21:36;;;;;;;37.03;24.33;;;8.60;99.90;;;;;;4976918;28;20046;-77
2023/03/31 01:24:13;;;;;;;37.83;22.55;;;8.60;99.90;;;;;;4976752;28;20081;-77
2023/03/31 01:26:42;;;;;;;40.47;23.85;;;8.60;99.90;;;;;;4975482;28;20404;-77
2023/03/31 01:29:32;;;;;;;43.45;24.02;;;8.60;99.90;;;;;;4976616;28;20039;-77
2023/03/31 01:32:32;;;;;;;36.95;22.92;;;8.60;99.90;;;;;;4976843;28;20019;-77
2023/03/31 01:35:19;;;;;;;36.80;22.85;;;8.60;99.90;;;;;;4976670;28;20081;-76
2023/03/31 01:38:04;;;;;;;36.35;23.55;;;8.60;99.90;;;;;;4975293;28;20029;-77
2023/03/31 01:40:44;;;;;;;41.17;24.02;;;8.60;99.90;;;;;;4976511;28;20050;-76
2023/03/31 01:43:39;;;;;;;37.33;23.77;;;8.50;99.90;;;;;;4975164;28;20504;-76
2023/03/31 01:46:40;;;;;;;39.28;26.45;;;8.50;99.90;;;;;;4971091;28;20043;-78
2023/03/31 01:49:23;;;;;;;36.65;24.38;;;8.40;99.90;;;;;;4975406;28;20078;-76
2023/03/31 01:52:00;;;;;;;35.65;22.63;;;8.40;99.90;;;;;;4976358;28;20022;-77
2023/03/31 01:54:40;;;;;;;32.03;20.15;;;8.40;99.90;;;;;;4974883;28;20034;-77
2023/03/31 01:57:21;;;;;;;33.33;20.95;;;8.40;99.90;;;;;;4974337;28;20049;-77
2023/03/31 02:00:02;;;;;;;36.33;21.80;;;8.40;99.90;;;;;;4974800;28;20031;-78
2023/03/31 02:02:35;;;;;;;28.85;20.95;;;8.40;99.90;;;;;;4975465;28;20019;-76
2023/03/31 02:05:21;;;;;;;33.58;21.60;;;8.40;99.90;;;;;;4958561;28;20496;-76
2023/03/31 02:07:54;;;;;;;34.10;21.85;;;8.40;99.90;;;;;;4975910;28;20468;-77
2023/03/31 02:10:21;;;;;;;32.33;20.50;;;8.30;99.90;;;;;;4975860;28;20065;-76
2023/03/31 02:12:50;;;;;;;34.17;21.65;;;8.30;99.90;;;;;;4975907;28;20483;-77
2023/03/31 02:15:22;;;;;;;34.80;21.65;;;8.20;99.90;;;;;;4958439;28;20054;-76
2023/03/31 02:17:50;;;;;;;29.20;18.83;;;8.20;99.90;;;;;;4975817;28;20541;-76
2023/03/31 02:20:20;;;;;;;36.72;22.67;;;8.20;99.90;;;;;;4958075;28;20062;-77
2023/03/31 02:22:52;;;;;;;33.22;22.23;;;8.10;99.90;;;;;;4975750;28;20026;-77
2023/03/31 02:25:27;;;;;;;34.95;21.48;;;8.10;99.90;;;;;;4975617;28;20073;-76
2023/03/31 02:27:57;;;;;;;35.00;20.88;;;8.00;99.90;;;;;;4975694;28;20023;-77
2023/03/31 02:30:29;;;;;;;33.50;21.70;;;8.00;99.90;;;;;;4975586;28;20023;-76
2023/03/31 02:32:55;;;;;;;30.65;21.35;;;8.00;99.90;;;;;;4975537;28;20034;-76
2023/03/31 02:35:21;;;;;;;39.00;23.13;;;8.00;99.90;;;;;;4975626;28;20018;-77
2023/03/31 02:37:52;;;;;;;35.70;21.77;;;7.90;99.90;;;;;;4958118;28;20033;-77
2023/03/31 02:40:21;;;;;;;31.98;22.50;;;7.90;99.90;;;;;;4958128;28;20035;-77
2023/03/31 02:42:47;;;;;;;37.08;23.02;;;7.90;99.90;;;;;;4958036;28;20026;-77
2023/03/31 02:45:42;;;;;;;35.53;22.50;;;7.90;99.90;;;;;;4975267;28;20061;-76
2023/03/31 02:48:15;;;;;;;35.00;22.58;;;7.90;99.90;;;;;;4975339;28;20106;-76
2023/03/31 02:51:06;;;;;;;34.22;22.67;;;7.90;99.90;;;;;;4975413;28;20029;-76
2023/03/31 02:53:52;;;;;;;35.50;21.98;;;7.80;99.90;;;;;;4957823;28;20488;-76
2023/03/31 02:56:49;;;;;;;35.20;21.67;;;7.80;99.90;;;;;;4975073;28;20027;-76
2023/03/31 02:59:18;;;;;;;33.47;21.88;;;7.80;99.90;;;;;;4974959;28;20030;-77
2023/03/31 03:02:03;;;;;;;31.42;21.90;;;7.80;99.90;;;;;;4957696;28;20117;-76
2023/03/31 03:04:48;;;;;;;34.28;21.70;;;7.80;99.90;;;;;;4974499;28;20042;-77
2023/03/31 03:07:49;;;;;;;33.13;21.30;;;7.70;99.90;;;;;;4957312;28;20042;-77
2023/03/31 03:10:18;;;;;;;36.28;20.92;;;7.80;99.90;;;;;;4908077;28;20396;-76
2023/03/31 03:12:59;;;;;;;33.38;21.38;;;7.70;99.90;;;;;;4974728;28;20027;-77
2023/03/31 03:15:32;;;;;;;34.47;22.20;;;7.70;99.90;;;;;;4974707;28;20038;-77
2023/03/31 03:17:58;;;;;;;35.20;21.50;;;7.70;99.90;;;;;;4957455;28;20079;-77
2023/03/31 03:20:24;;;;;;;37.50;23.33;;;7.70;99.90;;;;;;4974538;28;20504;-76
2023/03/31 03:22:50;;;;;;;33.28;22.10;;;7.70;99.90;;;;;;4974674;28;20027;-76
2023/03/31 03:25:17;;;;;;;34.83;22.27;;;7.70;99.90;;;;;;4974588;28;20042;-76
2023/03/31 03:27:43;;;;;;;36.63;22.90;;;7.70;99.90;;;;;;4974642;28;20029;-77
2023/03/31 03:30:11;;;;;;;40.60;23.88;;;7.80;99.90;;;;;;4957143;28;20025;-76
2023/03/31 03:32:36;;;;;;;37.25;23.95;;;7.70;99.90;;;;;;4974594;28;20030;-76
2023/03/31 03:35:04;;;;;;;36.20;23.13;;;7.70;99.90;;;;;;4974603;28;20506;-77
2023/03/31 03:37:30;;;;;;;35.28;22.60;;;7.70;99.90;;;;;;4974450;28;20421;-77
2023/03/31 03:39:55;;;;;;;34.05;23.27;;;7.70;99.90;;;;;;4957177;28;20125;-77
2023/03/31 03:42:21;;;;;;;36.00;23.52;;;7.70;99.90;;;;;;4974484;28;20443;-77
2023/03/31 03:44:47;;;;;;;35.03;23.25;;;7.70;99.90;;;;;;4974411;28;20042;-77
2023/03/31 03:47:13;;;;;;;37.03;24.20;;;7.70;99.90;;;;;;4974443;28;20023;-76
2023/03/31 03:49:38;;;;;;;35.75;24.63;;;7.70;99.90;;;;;;4957010;28;20022;-77
2023/03/31 03:52:04;;;;;;;43.60;26.80;;;7.70;99.90;;;;;;4974382;28;20097;-77
2023/03/31 03:54:30;;;;;;;42.58;27.45;;;7.70;99.90;;;;;;4974299;28;20029;-77
2023/03/31 03:56:55;;;;;;;43.35;27.08;;;7.70;99.90;;;;;;4974269;28;20027;-77
2023/03/31 03:59:21;;;;;;;39.50;25.10;;;7.70;99.90;;;;;;4956863;28;20019;-76
2023/03/31 04:01:47;;;;;;;40.33;25.88;;;7.70;99.90;;;;;;4957051;28;20030;-77
2023/03/31 04:04:12;;;;;;;43.00;27.55;;;7.70;99.90;;;;;;4974227;28;20031;-77
2023/03/31 04:06:38;;;;;;;41.38;25.85;;;7.70;99.90;;;;;;4974200;28;20034;-77
2023/03/31 04:09:04;;;;;;;40.53;27.00;;;7.70;99.90;;;;;;4974207;28;20049;-76
2023/03/31 04:11:30;;;;;;;41.75;26.25;;;7.70;99.90;;;;;;4956949;28;20384;-77
2023/03/31 04:13:55;;;;;;;41.15;26.67;;;7.70;99.90;;;;;;4956757;28;20480;-76
2023/03/31 04:16:24;;;;;;;41.25;25.95;;;7.70;99.90;;;;;;4956876;28;20034;-76
2023/03/31 04:18:55;;;;;;;43.47;26.95;;;7.70;99.90;;;;;;4974213;28;20027;-76
2023/03/31 04:21:22;;;;;;;39.08;25.77;;;7.70;99.90;;;;;;4960521;28;20053;-76
2023/03/31 04:24:03;;;;;;;36.45;24.30;;;7.70;99.90;;;;;;4960478;28;20105;-76
2023/03/31 04:26:53;;;;;;;39.70;25.60;;;7.70;99.90;;;;;;4960438;28;20400;-76
2023/03/31 04:29:19;;;;;;;38.47;24.88;;;7.70;99.90;;;;;;4977057;28;20027;-77
2023/03/31 04:31:45;;;;;;;39.38;25.60;;;7.70;99.90;;;;;;4978003;28;20146;-77
2023/03/31 04:34:14;;;;;;;44.83;26.23;;;7.60;99.90;;;;;;4977740;28;20058;-76
2023/03/31 04:36:47;;;;;;;42.55;25.90;;;7.60;99.90;;;;;;4960439;28;20085;-77
2023/03/31 04:39:25;;;;;;;39.08;25.27;;;7.60;99.90;;;;;;4975710;28;20433;-77
2023/03/31 04:41:54;;;;;;;38.50;24.98;;;7.60;99.90;;;;;;4964619;28;20416;-77
2023/03/31 04:44:20;;;;;;;44.65;26.92;;;7.70;99.90;;;;;;4959926;28;20030;-77
2023/03/31 04:46:45;;;;;;;42.50;26.95;;;7.60;99.90;;;;;;4977624;28;20031;-77
2023/03/31 04:49:11;;;;;;;42.47;27.60;;;7.60;99.90;;;;;;4960019;28;20022;-78
2023/03/31 04:51:36;;;;;;;45.05;25.95;;;7.70;99.90;;;;;;4977413;28;20023;-77
2023/03/31 04:54:02;;;;;;;39.95;25.95;;;7.70;99.90;;;;;;4959459;28;20428;-77
2023/03/31 04:56:28;;;;;;;44.08;26.48;;;7.70;99.90;;;;;;4959928;28;20027;-77
2023/03/31 04:58:54;;;;;;;40.17;26.60;;;7.70;99.90;;;;;;4959826;28;20370;-77
2023/03/31 05:01:19;;;;;;;42.92;25.33;;;7.70;99.90;;;;;;4977161;28;20027;-77
2023/03/31 05:03:49;;;;;;;43.35;26.73;;;7.80;99.90;;;;;;4977108;28;20026;-77
2023/03/31 05:06:15;;;;;;;40.30;25.50;;;7.80;99.90;;;;;;4969473;28;20043;-77
2023/03/31 05:08:42;;;;;;;42.80;24.77;;;7.80;99.90;;;;;;4976533;28;20023;-78
2023/03/31 05:11:08;;;;;;;40.33;23.52;;;7.70;99.90;;;;;;4975716;28;20151;-77
2023/03/31 05:13:33;;;;;;;38.58;23.67;;;7.80;99.90;;;;;;4974134;28;20111;-78
2023/03/31 05:16:09;;;;;;;36.95;24.75;;;7.80;99.90;;;;;;4973723;28;20499;-77
2023/03/31 05:18:35;;;;;;;41.25;22.90;;;7.80;99.90;;;;;;4974890;28;20066;-77
2023/03/31 05:21:15;;;;;;;35.15;20.80;;;7.90;99.90;;;;;;4976317;28;20043;-77
2023/03/31 05:23:41;;;;;;;40.20;24.23;;;7.90;99.90;;;;;;4994185;28;20030;-77
2023/03/31 05:26:08;;;;;;;36.33;22.08;;;7.90;99.90;;;;;;4995597;28;20046;-78
2023/03/31 05:28:34;;;;;;;36.78;21.73;;;7.90;99.90;;;;;;4978646;28;20026;-77
2023/03/31 05:31:01;;;;;;;37.20;22.60;;;7.80;99.90;;;;;;4990113;28;20480;-77
2023/03/31 05:33:27;;;;;;;35.90;21.73;;;7.80;99.90;;;;;;4963079;28;20023;-77
2023/03/31 05:35:52;;;;;;;40.75;23.63;;;7.80;99.90;;;;;;4958167;28;20018;-77
2023/03/31 05:38:18;;;;;;;41.28;22.67;;;7.80;99.90;;;;;;4986186;28;20022;-77
2023/03/31 05:40:44;;;;;;;34.58;20.85;;;7.80;99.90;;;;;;4984814;28;20019;-76
2023/03/31 05:43:09;;;;;;;37.22;21.13;;;7.90;99.90;;;;;;4957077;28;20024;-76
2023/03/31 05:45:35;;;;;;;33.40;20.50;;;8.00;99.90;;;;;;4955390;29;20118;-76
2023/03/31 05:48:01;;;;;;;31.95;20.35;;;8.10;99.90;;;;;;4961722;28;20480;-77
2023/03/31 05:50:26;;;;;;;32.38;20.48;;;8.10;99.90;;;;;;4973410;28;20026;-77
2023/03/31 05:52:52;;;;;;;35.88;20.30;;;8.20;99.90;;;;;;4974757;28;20536;-77
2023/03/31 05:55:17;;;;;;;31.17;19.77;;;8.20;99.90;;;;;;4973603;28;20027;-77
2023/03/31 05:57:43;;;;;;;26.63;17.27;;;8.30;99.90;;;;;;4971199;28;20050;-77
2023/03/31 06:00:10;;;;;;;31.45;18.00;;;8.30;99.90;;;;;;4953850;28;20034;-77
2023/03/31 06:02:36;;;;;;;23.33;15.95;;;8.40;99.90;;;;;;4938479;28;20050;-77
2023/03/31 06:05:02;;;;;;;22.83;14.90;;;8.50;99.90;;;;;;4955058;29;20031;-77
2023/03/31 06:07:28;;;;;;;23.75;16.38;;;8.60;99.90;;;;;;4939059;28;20043;-77
2023/03/31 06:09:53;;;;;;;25.25;16.90;;;8.60;99.90;;;;;;4955874;29;20381;-77
2023/03/31 06:12:19;;;;;;;23.50;16.52;;;8.70;99.90;;;;;;4954145;29;20031;-77
2023/03/31 06:14:45;;;;;;;26.17;15.20;;;8.90;99.90;;;;;;4938162;29;20125;-77
2023/03/31 06:17:10;;;;;;;21.92;14.23;;;8.90;99.90;;;;;;4954622;29;20027;-78
2023/03/31 06:19:37;;;;;;;21.77;15.23;;;9.00;99.90;;;;;;4953821;28;20085;-77
2023/03/31 06:22:02;;;;;;;19.65;14.52;;;9.10;99.90;;;;;;4953081;29;20034;-77
2023/03/31 06:24:28;;;;;;;23.33;14.32;;;9.10;99.90;;;;;;4936148;29;20031;-78
2023/03/31 06:26:54;;;;;;;22.13;13.25;;;9.10;99.90;;;;;;4952764;29;20027;-77
2023/03/31 06:29:19;;;;;;;21.98;14.52;;;9.20;99.90;;;;;;4951120;28;20028;-77
2023/03/31 06:31:45;;;;;;;25.45;16.52;;;9.20;99.90;;;;;;4953522;29;20574;-78
2023/03/31 06:34:10;;;;;;;22.30;15.10;;;9.20;99.90;;;;;;4953678;28;20023;-77
2023/03/31 06:36:36;;;;;;;19.73;13.40;;;9.30;99.90;;;;;;4954260;29;20110;-77
2023/03/31 06:39:02;;;;;;;19.15;13.48;;;9.30;99.90;;;;;;4936969;29;20073;-77
2023/03/31 06:41:27;;;;;;;17.73;12.73;;;9.30;99.90;;;;;;4953569;29;20027;-77
2023/03/31 06:43:53;;;;;;;20.65;14.27;;;9.40;99.90;;;;;;4955910;28;20103;-78
2023/03/31 06:46:19;;;;;;;19.70;14.50;;;9.40;99.90;;;;;;4956023;29;20071;-77
2023/03/31 06:48:44;;;;;;;18.58;13.75;;;9.50;99.90;;;;;;4938840;29;20460;-77
2023/03/31 06:51:11;;;;;;;24.95;14.57;;;9.60;99.90;;;;;;4956011;29;20023;-77
2023/03/31 06:53:36;;;;;;;20.77;13.18;;;9.60;99.90;;;;;;4938788;29;20031;-78
2023/03/31 06:56:03;;;;;;;19.05;13.15;;;9.70;99.90;;;;;;4955632;29;20110;-78
2023/03/31 06:58:29;;;;;;;19.10;12.32;;;9.90;99.90;;;;;;4955448;28;20020;-76
2023/03/31 07:00:55;;;;;;;17.45;12.80;;;10.20;99.90;;;;;;4955831;29;20662;-78
2023/03/31 07:03:21;;;;;;;18.92;12.93;;;10.40;99.90;;;;;;4938539;29;20019;-77
2023/03/31 07:05:53;;;;;;;19.08;13.20;;;10.60;99.90;;;;;;4955795;29;20058;-77
2023/03/31 07:08:20;;;;;;;;;;;10.80;99.90;;;;;;4955010;28;20532;-77
2023/03/31 07:10:47;;;;;;;15.40;10.40;;;10.90;99.90;;;;;;4955749;29;19917;-78
2023/03/31 07:13:15;;;;;;;14.70;10.55;;;11.00;99.90;;;;;;4955641;28;20023;-77
2023/03/31 07:15:41;;;;;;;13.40;8.95;;;11.10;99.90;;;;;;4955654;29;20023;-77
2023/03/31 07:18:08;;;;;;;11.57;9.75;;;11.20;99.90;;;;;;4938281;29;20031;-78
2023/03/31 07:20:34;;;;;;;14.45;10.50;;;11.30;99.90;;;;;;4955438;29;20492;-77
2023/03/31 07:23:03;;;;;;;12.35;9.40;;;11.40;98.50;;;;;;4955495;28;20031;-78
2023/03/31 07:25:29;;;;;;;13.10;9.65;;;11.60;98.60;;;;;;4955321;29;20066;-77
2023/03/31 07:27:54;;;;;;;11.45;9.38;;;11.60;94.20;;;;;;4938112;29;20058;-78
2023/03/31 07:30:21;;;;;;;12.77;9.15;;;11.70;93.20;;;;;;4955350;29;20058;-77
2023/03/31 07:32:48;;;;;;;12.88;8.60;;;11.80;91.60;;;;;;4938050;28;20027;-78
2023/03/31 07:35:15;;;;;;;10.20;7.88;;;11.90;90.50;;;;;;4938174;29;20054;-77
2023/03/31 07:37:44;;;;;;;8.95;7.82;;;11.90;89.50;;;;;;4938034;28;20031;-78
2023/03/31 07:40:17;;;;;;;9.68;7.32;;;11.90;89.10;;;;;;4955247;29;20106;-77
2023/03/31 07:42:43;;;;;;;10.88;7.75;;;12.00;89.30;;;;;;4955405;28;20063;-78
2023/03/31 07:45:09;;;;;;;12.93;7.72;;;11.90;88.20;;;;;;4937946;29;20066;-77
2023/03/31 07:47:35;;;;;;;9.45;7.28;;;11.90;89.20;;;;;;4955144;28;20035;-77
2023/03/31 07:50:01;;;;;;;10.65;7.93;;;12.00;90.20;;;;;;4938082;29;20055;-78
2023/03/31 07:52:27;;;;;;;10.18;7.10;;;11.90;88.60;;;;;;4955042;28;20073;-78
2023/03/31 07:54:52;;;;;;;11.80;7.38;;;11.90;87.80;;;;;;4939827;29;20023;-77
2023/03/31 07:57:18;;;;;;;14.23;7.05;;;12.00;89.10;;;;;;4959141;29;20090;-77
2023/03/31 07:59:45;;;;;;;9.93;6.57;;;12.20;88.90;;;;;;4957523;28;20023;-77
2023/03/31 08:02:13;;;;;;;8.88;5.55;;;12.40;86.60;;;;;;4957745;29;20023;-78
2023/03/31 08:04:41;;;;;;;10.32;5.80;;;12.60;84.60;;;;;;4941712;29;20934;-77
2023/03/31 08:07:07;;;;;;;16.05;6.22;;;12.80;82.50;;;;;;4941794;29;20374;-78
2023/03/31 08:09:33;;;;;;;9.13;5.55;;;13.10;82.50;;;;;;4958861;28;20027;-77
2023/03/31 08:11:58;;;;;;;8.52;4.32;;;13.30;80.70;;;;;;4941726;29;20034;-78
2023/03/31 08:14:24;;;;;;;6.38;4.22;;;13.50;80.00;;;;;;4958868;28;20429;-77
2023/03/31 08:16:50;;;;;;;4.70;4.07;;;13.60;77.20;;;;;;4958852;29;20036;-77
2023/03/31 08:19:16;;;;;;;7.57;5.05;;;13.70;76.40;;;;;;4941501;29;20031;-78
2023/03/31 08:21:41;;;;;;;8.48;6.13;;;13.80;76.20;;;;;;4958590;29;20058;-78
2023/03/31 08:24:07;;;;;;;8.02;5.10;;;13.90;74.20;;;;;;4941405;29;20512;-77
2023/03/31 08:26:33;;;;;;;5.30;3.67;;;14.10;74.80;;;;;;4941290;29;20131;-78
2023/03/31 08:28:59;;;;;;;5.55;4.18;;;14.30;73.10;;;;;;4958556;28;20533;-77
2023/03/31 08:31:27;;;;;;;7.47;4.85;;;14.40;73.10;;;;;;4958509;29;20191;-78
2023/03/31 08:33:54;;;;;;;5.55;4.28;;;14.40;70.80;;;;;;4958557;28;20175;-78
2023/03/31 08:36:19;;;;;;;6.78;3.70;;;14.30;70.80;;;;;;4958357;29;20362;-77
2023/03/31 08:38:46;;;;;;;6.20;3.85;;;14.30;70.90;;;;;;4941230;29;20043;-77
2023/03/31 08:41:58;;;;;;;5.97;4.22;;;14.20;71.30;;;;;;4958395;29;20023;-77
2023/03/31 08:44:45;;;;;;;15.77;4.73;;;14.20;71.50;;;;;;4880437;29;20048;-78
2023/03/31 08:47:17;;;;;;;8.27;4.00;;;14.30;72.30;;;;;;4958297;29;20358;-77
2023/03/31 08:49:58;;;;;;;5.53;3.72;;;14.40;71.80;;;;;;4958193;28;20450;-77
2023/03/31 08:52:33;;;;;;;5.32;3.53;;;14.10;69.90;;;;;;4958197;29;20063;-77
2023/03/31 08:55:03;;;;;;;9.43;4.00;;;14.00;70.50;;;;;;4958119;29;20027;-78
2023/03/31 08:58:26;;;;;;;9.65;4.07;;;13.70;70.80;;;;;;4940604;28;20023;-78
2023/03/31 09:01:06;;;;;;;6.32;3.40;;;13.70;72.00;;;;;;4879636;29;20033;-77
2023/03/31 09:03:38;;;;;;;8.02;3.40;;;14.00;73.40;;;;;;4880038;29;20059;-78
2023/03/31 09:06:17;;;;;;;6.30;3.50;;;14.20;73.00;;;;;;4919976;29;20043;-78
2023/03/31 09:08:43;;;;;;;5.00;2.90;;;14.30;70.60;;;;;;4957894;28;20389;-78
2023/03/31 09:11:12;;;;;;;4.90;2.80;;;14.40;70.70;;;;;;4956850;29;20027;-78
2023/03/31 09:13:55;;;;;;;4.47;3.10;;;14.40;69.10;;;;;;4957693;28;20035;-77
2023/03/31 09:16:43;;;;;;;4.10;2.67;;;14.30;69.10;;;;;;4956441;29;20045;-78
2023/03/31 09:19:28;;;;;;;5.22;2.67;;;14.40;69.30;;;;;;4957630;28;20023;-78
2023/03/31 09:21:55;;;;;;;3.95;2.83;;;14.50;69.30;;;;;;4956490;29;20413;-78
2023/03/31 09:24:22;;;;;;;3.15;2.58;;;14.60;69.10;;;;;;4956139;28;20024;-78
2023/03/31 09:27:14;;;;;;;5.10;2.85;;;14.50;68.60;;;;;;4957554;29;20031;-78
2023/03/31 09:29:54;;;;;;;3.65;2.78;;;14.50;68.40;;;;;;4954017;28;20438;-78
2023/03/31 09:32:25;;;;;;;2.90;2.47;;;14.60;68.80;;;;;;4956156;29;20082;-78
2023/03/31 09:35:15;;;;;;;3.63;2.42;;;14.50;68.30;;;;;;4957635;29;20501;-78
2023/03/31 09:37:41;;;;;;;3.60;2.38;;;14.50;67.80;;;;;;4957430;28;20468;-77
2023/03/31 09:40:14;;;;;;;6.63;2.47;;;14.40;68.10;;;;;;4956000;29;20115;-77
2023/03/31 09:42:39;;;;;;;4.60;2.40;;;14.40;67.50;;;;;;4956022;28;20054;-78
2023/03/31 09:45:05;;;;;;;4.80;2.40;;;14.40;67.70;;;;;;4955890;29;20043;-77
2023/03/31 09:47:53;;;;;;;4.30;2.50;;;14.50;68.10;;;;;;4939969;28;20019;-78
2023/03/31 09:50:21;;;;;;;10.43;3.58;;;14.60;67.70;;;;;;4955870;29;20019;-77
2023/03/31 09:52:50;;;;;;;3.70;2.00;;;14.70;67.20;;;;;;4955564;28;20486;-78
2023/03/31 09:55:35;;;;;;;4.90;2.83;;;14.60;65.40;;;;;;4963777;28;20542;-78
2023/03/31 09:58:05;;;;;;;5.22;2.05;;;14.70;65.20;;;;;;4975225;28;20099;-78
2023/03/31 10:00:33;;;;;;;1.88;1.45;;;14.80;65.90;;;;;;4957839;28;20015;-78
2023/03/31 10:03:06;;;;;;;3.83;1.60;;;14.90;65.70;;;;;;4975430;28;20511;-78
2023/03/31 10:05:40;;;;;;;4.93;1.88;;;15.00;65.90;;;;;;4975119;28;20062;-78
2023/03/31 10:08:23;;;;;;;7.15;1.83;;;15.00;65.20;;;;;;4975053;28;20031;-78
2023/03/31 10:11:02;;;;;;;4.63;2.10;;;15.00;64.60;;;;;;4975871;28;20391;-79
2023/03/31 10:13:42;;;;;;;5.53;1.70;;;15.00;64.90;;;;;;4958284;28;20066;-78
2023/03/31 10:16:12;;;;;;;6.10;2.60;;;15.10;65.00;;;;;;4975615;28;20061;-79
2023/03/31 10:18:41;;;;;;;7.03;2.13;;;15.40;65.70;;;;;;4957845;28;20088;-78
2023/03/31 10:21:25;;;;;;;2.80;1.95;;;15.60;63.90;;;;;;4958341;28;20150;-78
2023/03/31 10:23:53;;;;;;;3.40;1.80;;;15.70;63.10;;;;;;4958323;28;20046;-78
2023/03/31 10:26:22;;;;;;;2.72;1.60;;;15.60;61.90;;;;;;4957981;28;20031;-78
2023/03/31 10:28:51;;;;;;;2.00;1.73;;;15.50;61.20;;;;;;4958065;28;20484;-78
2023/03/31 10:31:18;;;;;;;2.95;1.33;;;15.50;62.50;;;;;;4976496;28;20031;-78
2023/03/31 10:33:46;;;;;;;2.50;1.52;;;15.50;62.90;;;;;;4963035;28;20157;-78
2023/03/31 10:36:28;;;;;;;2.70;1.38;;;15.60;62.70;;;;;;4957990;28;20388;-78
2023/03/31 10:38:55;;;;;;;2.60;1.83;;;15.60;62.00;;;;;;4969215;28;20029;-78
2023/03/31 10:41:24;;;;;;;4.30;1.70;;;15.60;61.50;;;;;;4989384;28;20504;-78
2023/03/31 10:43:52;;;;;;;6.30;1.50;;;15.40;61.20;;;;;;4961195;28;20027;-78
2023/03/31 10:46:19;;;;;;;2.97;1.40;;;15.30;61.50;;;;;;4983564;28;21416;-78
2023/03/31 10:48:45;;;;;;;4.75;1.98;;;15.20;61.20;;;;;;4992555;28;20073;-77
2023/03/31 10:51:13;;;;;;;2.88;1.75;;;14.80;60.90;;;;;;4980250;28;20488;-79
2023/03/31 10:53:47;;;;;;;3.25;1.80;;;14.60;62.30;;;;;;4980332;28;20579;-78
2023/03/31 10:56:52;;;;;;;4.93;1.80;;;14.50;64.00;;;;;;4981170;28;20023;-78
2023/03/31 11:00:11;;;;;;;2.85;1.70;;;14.30;64.20;;;;;;4980485;28;20034;-78
2023/03/31 11:03:02;;;;;;;3.50;1.70;;;14.20;65.30;;;;;;4894582;29;20107;-78
2023/03/31 11:05:44;;;;;;;3.70;2.28;;;14.10;66.20;;;;;;4981945;28;20431;-78
2023/03/31 11:08:22;;;;;;;3.53;2.00;;;13.90;67.00;;;;;;4967083;28;20472;-78
2023/03/31 11:10:48;;;;;;;4.97;2.15;;;13.90;67.80;;;;;;4982185;28;20077;-78
2023/03/31 11:13:32;;;;;;;4.85;3.17;;;13.90;67.70;;;;;;4982496;28;20030;-78
2023/03/31 11:16:19;;;;;;;4.70;2.45;;;13.90;67.50;;;;;;4962300;28;20118;-77
2023/03/31 11:18:58;;;;;;;2.17;1.90;;;13.90;67.50;;;;;;4982926;28;20062;-78
2023/03/31 11:21:37;;;;;;;5.63;2.17;;;14.00;68.60;;;;;;4984095;28;20145;-78
2023/03/31 11:24:18;;;;;;;5.28;2.17;;;14.10;68.80;;;;;;4985826;28;20019;-79
2023/03/31 11:27:08;;;;;;;3.95;1.85;;;14.10;68.70;;;;;;4976689;28;20033;-79
2023/03/31 11:29:59;;;;;;;6.47;2.20;;;14.00;68.80;;;;;;4975653;28;20392;-78
2023/03/31 11:32:48;;;;;;;3.28;2.67;;;13.90;68.90;;;;;;4975931;28;20031;-79
2023/03/31 11:35:44;;;;;;;5.05;2.85;;;13.80;69.10;;;;;;4980080;28;20072;-79
2023/03/31 11:38:43;;;;;;;3.90;2.30;;;13.80;69.10;;;;;;4977023;28;20014;-79
2023/03/31 11:41:18;;;;;;;6.07;2.30;;;13.80;69.40;;;;;;4963893;28;20050;-79
2023/03/31 11:43:59;;;;;;;5.95;2.33;;;13.90;69.80;;;;;;4976308;28;20110;-78
2023/03/31 11:46:32;;;;;;;5.70;2.70;;;13.90;69.60;;;;;;4966345;28;20399;-79
2023/03/31 11:49:10;;;;;;;5.90;2.58;;;13.80;68.90;;;;;;4987444;28;20384;-79
2023/03/31 11:52:00;;;;;;;7.38;2.55;;;13.80;69.40;;;;;;4971664;28;20042;-78
2023/03/31 11:54:54;;;;;;;6.53;2.53;;;13.90;70.20;;;;;;4973238;28;20037;-78
2023/03/31 11:57:38;;;;;;;5.35;2.80;;;13.90;70.20;;;;;;4983052;28;20109;-78
2023/03/31 12:00:29;;;;;;;5.28;2.78;;;14.10;70.40;;;;;;4981304;28;20050;-79
2023/03/31 12:03:06;;;;;;;5.90;2.70;;;14.40;70.50;;;;;;4977065;28;20031;-75
2023/03/31 12:05:35;;;;;;;3.47;2.33;;;14.50;69.30;;;;;;4981293;28;20431;-79
2023/03/31 12:08:28;;;;;;;7.85;2.78;;;14.70;69.20;;;;;;4965294;28;20403;-80
2023/03/31 12:10:54;;;;;;;;;;;14.60;68.00;;;;;;4975802;28;20494;-77
2023/03/31 12:13:39;;;;;;;4.85;2.72;;;14.70;68.40;;;;;;4979520;28;20318;-77
2023/03/31 12:16:17;;;;;;;8.68;2.70;;;14.70;67.90;;;;;;4992857;28;20388;-76
2023/03/31 12:19:22;;;;;;;5.88;2.70;;;14.80;68.30;;;;;;4982798;28;20086;-76
2023/03/31 12:21:57;;;;;;;6.00;2.30;;;14.80;68.20;;;;;;4971780;28;20042;-75
2023/03/31 12:24:23;;;;;;;5.25;2.35;;;14.80;68.20;;;;;;4987352;28;20022;-75
2023/03/31 12:27:02;;;;;;;6.10;2.53;;;14.80;68.20;;;;;;4969946;28;20023;-75
2023/03/31 12:29:57;;;;;;;6.45;2.70;;;14.70;69.00;;;;;;4963096;28;20053;-77
2023/03/31 12:32:29;;;;;;;5.68;2.83;;;14.80;69.10;;;;;;4970451;28;20477;-76
2023/03/31 12:34:59;;;;;;;3.47;2.63;;;14.90;68.50;;;;;;4956731;28;20062;-77
2023/03/31 12:37:47;;;;;;;7.15;2.92;;;15.10;68.60;;;;;;4973975;28;20074;-76
2023/03/31 12:40:31;;;;;;;8.27;2.35;;;15.30;68.00;;;;;;4967194;28;20043;-76
2023/03/31 12:43:18;;;;;;;5.28;2.60;;;15.10;66.90;;;;;;4960212;28;20035;-77
2023/03/31 12:45:55;;;;;;;9.60;3.70;;;15.10;66.20;;;;;;4977658;28;20039;-76
2023/03/31 12:48:40;;;;;;;7.95;2.65;;;15.10;66.40;;;;;;4960251;28;20034;-75
2023/03/31 12:51:33;;;;;;;4.97;2.28;;;15.10;65.60;;;;;;4960164;28;20031;-76
2023/03/31 12:54:36;;;;;;;6.95;2.25;;;15.20;64.40;;;;;;4976607;28;20030;-76
2023/03/31 12:57:03;;;;;;;6.50;2.40;;;15.30;63.70;;;;;;4969911;28;20034;-77
2023/03/31 12:59:38;;;;;;;4.80;2.13;;;15.20;64.00;;;;;;4973197;28;20027;-77
2023/03/31 13:02:15;;;;;;;8.40;2.88;;;15.00;63.30;;;;;;4976195;28;20107;-76
2023/03/31 13:04:42;;;;;;;4.40;2.50;;;14.90;63.90;;;;;;4967943;28;20039;-76
2023/03/31 13:07:26;;;;;;;5.95;2.22;;;14.80;64.30;;;;;;4975993;28;20031;-77
2023/03/31 13:09:57;;;;;;;7.55;2.83;;;14.60;64.30;;;;;;4976106;28;20030;-77